createdAt,value
2022-08-10T00:00:46.494Z,16.49
2022-08-10T00:03:14.053Z,16.47
2022-08-10T00:05:43.382Z,16.48
2022-08-10T00:08:22.762Z,16.46
2022-08-10T00:10:56.041Z,16.46
2022-08-10T00:13:24.961Z,16.47
2022-08-10T00:15:55.172Z,16.45
2022-08-10T00:18:35.196Z,16.41
2022-08-10T00:21:08.467Z,16.42
2022-08-10T00:23:38.261Z,16.38
2022-08-10T00:26:07.474Z,16.38
2022-08-10T00:28:35.002Z,16.24
2022-08-10T00:31:02.625Z,16.23
2022-08-10T00:33:30.117Z,16.18
2022-08-10T00:35:57.645Z,16.13
2022-08-10T00:38:25.174Z,16.08
2022-08-10T00:40:52.709Z,16.03
2022-08-10T00:43:23.460Z,16.07
2022-08-10T00:45:58.904Z,15.98
2022-08-10T00:48:29.948Z,15.99
2022-08-10T00:50:59.691Z,15.96
2022-08-10T00:53:29.158Z,15.88
2022-08-10T00:56:38.407Z,15.89
2022-08-10T00:58:46.879Z,15.88
2022-08-10T01:02:10.097Z,15.89
2022-08-10T01:04:58.531Z,15.81
2022-08-10T01:07:04.492Z,15.83
2022-08-10T01:10:02.939Z,15.79
2022-08-10T01:12:47.062Z,15.79
2022-08-10T01:15:28.062Z,15.83
2022-08-10T01:18:37.184Z,15.76
2022-08-10T01:21:23.801Z,15.77
2022-08-10T01:24:06.564Z,15.74
2022-08-10T01:26:50.317Z,15.71
2022-08-10T01:29:48.647Z,15.70
2022-08-10T01:32:25.067Z,15.67
2022-08-10T01:35:10.345Z,15.71
2022-08-10T01:37:44.477Z,15.67
2022-08-10T01:40:25.699Z,15.64
2022-08-10T01:42:55.437Z,15.67
2022-08-10T01:45:29.098Z,15.67
2022-08-10T01:48:31.095Z,15.70
2022-08-10T01:51:05.724Z,15.65
2022-08-10T01:53:41.248Z,15.66
2022-08-10T01:56:11.789Z,15.60
2022-08-10T01:58:40.531Z,15.55
2022-08-10T02:01:16.897Z,15.56
2022-08-10T02:04:05.331Z,15.57
2022-08-10T02:06:38.340Z,15.54
2022-08-10T02:09:08.146Z,15.54
2022-08-10T02:12:06.794Z,15.49
2022-08-10T02:14:33.278Z,15.45
2022-08-10T02:17:05.783Z,15.42
2022-08-10T02:19:36.419Z,15.39
2022-08-10T02:22:15.447Z,15.34
2022-08-10T02:24:53.756Z,15.40
2022-08-10T02:27:24.545Z,15.36
2022-08-10T02:29:53.692Z,15.33
2022-08-10T02:32:36.467Z,15.35
2022-08-10T02:35:18.628Z,15.27
2022-08-10T02:37:52.289Z,15.31
2022-08-10T02:42:18.085Z,15.27
2022-08-10T02:45:18.928Z,15.22
2022-08-10T02:46:42.749Z,15.22
2022-08-10T02:49:19.114Z,15.19
2022-08-10T02:52:06.585Z,15.16
2022-08-10T02:54:40.227Z,15.13
2022-08-10T02:57:15.309Z,15.10
2022-08-10T02:59:47.325Z,15.13
2022-08-10T03:02:26.560Z,15.11
2022-08-10T03:04:58.475Z,15.09
2022-08-10T03:07:42.858Z,15.09
2022-08-10T03:10:17.051Z,15.02
2022-08-10T03:12:45.382Z,15.02
2022-08-10T03:15:15.689Z,15.05
2022-08-10T03:17:58.299Z,15.04
2022-08-10T03:20:47.054Z,14.94
2022-08-10T03:23:17.707Z,14.97
2022-08-10T03:25:54.006Z,14.96
2022-08-10T03:28:30.562Z,14.95
2022-08-10T03:31:00.248Z,14.94
2022-08-10T03:33:40.504Z,14.92
2022-08-10T03:36:39.972Z,14.88
2022-08-10T03:38:56.538Z,14.87
2022-08-10T03:41:30.521Z,14.88
2022-08-10T03:44:05.620Z,14.82
2022-08-10T03:46:35.978Z,14.84
2022-08-10T03:49:06.947Z,14.75
2022-08-10T03:51:35.883Z,14.77
2022-08-10T03:54:07.328Z,14.81
2022-08-10T03:56:40.910Z,14.74
2022-08-10T03:59:14.212Z,14.80
2022-08-10T04:02:44.576Z,14.59
2022-08-10T04:04:34.726Z,14.78
2022-08-10T04:07:03.988Z,14.76
2022-08-10T04:09:54.664Z,14.77
2022-08-10T04:12:22.023Z,14.76
2022-08-10T04:14:52.779Z,14.74
2022-08-10T04:17:56.846Z,14.72
2022-08-10T04:20:34.960Z,14.73
2022-08-10T04:23:07.631Z,14.75
2022-08-10T04:25:35.854Z,14.74
2022-08-10T04:28:03.737Z,14.66
2022-08-10T04:30:33.358Z,14.73
2022-08-10T04:33:03.328Z,14.68
2022-08-10T04:35:33.023Z,14.66
2022-08-10T04:38:01.579Z,14.68
2022-08-10T04:40:31.083Z,14.67
2022-08-10T04:43:12.417Z,14.71
2022-08-10T04:45:48.433Z,14.70
2022-08-10T04:48:40.393Z,14.76
2022-08-10T04:51:10.825Z,14.71
2022-08-10T04:54:04.441Z,14.74
2022-08-10T04:56:31.803Z,14.77
2022-08-10T04:59:00.942Z,14.84
2022-08-10T05:02:22.689Z,14.84
2022-08-10T05:04:38.179Z,14.87
2022-08-10T05:07:04.217Z,14.91
2022-08-10T05:09:31.673Z,14.94
2022-08-10T05:11:59.158Z,14.94
2022-08-10T05:14:26.670Z,14.97
2022-08-10T05:16:54.155Z,15.01
2022-08-10T05:20:01.377Z,15.12
2022-08-10T05:22:09.230Z,15.13
2022-08-10T05:24:36.726Z,15.13
2022-08-10T05:27:09.903Z,15.22
2022-08-10T05:29:38.225Z,15.28
2022-08-10T05:32:06.342Z,15.36
2022-08-10T05:34:33.891Z,15.46
2022-08-10T05:37:01.590Z,15.54
2022-08-10T05:39:30.462Z,15.62
2022-08-10T05:42:00.937Z,15.67
2022-08-10T05:44:30.218Z,15.66
2022-08-10T05:46:58.068Z,15.79
2022-08-10T05:49:25.827Z,15.79
2022-08-10T05:51:53.391Z,15.77
2022-08-10T05:54:21.241Z,15.97
2022-08-10T05:56:54.235Z,16.06
2022-08-10T06:00:33.082Z,16.18
2022-08-10T06:02:37.437Z,16.17
2022-08-10T06:05:09.241Z,16.30
2022-08-10T06:07:46.100Z,16.37
2022-08-10T06:10:31.703Z,16.51
2022-08-10T06:13:34.286Z,16.65
2022-08-10T06:16:06.567Z,16.80
2022-08-10T06:18:34.510Z,16.86
2022-08-10T06:21:03.051Z,16.93
2022-08-10T06:23:32.526Z,17.09
2022-08-10T06:26:11.039Z,17.24
2022-08-10T06:28:54.009Z,17.32
2022-08-10T06:31:48.113Z,17.44
2022-08-10T06:34:21.359Z,17.46
2022-08-10T06:36:50.025Z,17.62
2022-08-10T06:39:32.812Z,17.63
2022-08-10T06:42:16.719Z,17.77
2022-08-10T06:45:13.357Z,18.11
2022-08-10T06:47:55.070Z,18.31
2022-08-10T06:50:45.320Z,18.41
2022-08-10T06:53:18.707Z,18.54
2022-08-10T06:56:10.104Z,18.45
2022-08-10T06:58:42.039Z,18.73
2022-08-10T07:01:15.508Z,18.86
2022-08-10T07:03:54.874Z,19.07
2022-08-10T07:06:23.124Z,19.12
2022-08-10T07:08:52.933Z,19.04
2022-08-10T07:11:23.021Z,19.22
2022-08-10T07:14:17.161Z,19.18
2022-08-10T07:16:45.617Z,19.46
2022-08-10T07:19:14.744Z,19.42
2022-08-10T07:21:45.451Z,19.54
2022-08-10T07:24:15.138Z,19.94
2022-08-10T07:26:48.894Z,19.88
2022-08-10T07:29:52.673Z,20.08
2022-08-10T07:32:09.269Z,20.18
2022-08-10T07:34:37.395Z,20.35
2022-08-10T07:37:08.578Z,20.37
2022-08-10T07:40:01.918Z,20.56
2022-08-10T07:42:31.842Z,20.83
2022-08-10T07:44:59.598Z,20.60
2022-08-10T07:47:53.116Z,20.66
2022-08-10T07:50:24.351Z,21.07
2022-08-10T07:52:54.410Z,21.33
2022-08-10T07:56:04.215Z,21.35
2022-08-10T07:58:12.366Z,21.28
2022-08-10T08:00:40.810Z,21.32
2022-08-10T08:03:10.787Z,21.58
2022-08-10T08:06:02.634Z,21.66
2022-08-10T08:08:28.820Z,21.70
2022-08-10T08:10:56.834Z,22.17
2022-08-10T08:13:26.019Z,21.78
2022-08-10T08:16:19.717Z,22.01
2022-08-10T08:18:50.949Z,22.11
2022-08-10T08:24:07.958Z,22.43
2022-08-10T08:24:31.629Z,22.44
2022-08-10T08:27:01.789Z,22.34
2022-08-10T08:29:30.509Z,22.52
2022-08-10T08:32:01.943Z,22.92
2022-08-10T08:34:31.484Z,22.76
2022-08-10T08:37:01.227Z,22.70
2022-08-10T08:39:29.803Z,23.13
2022-08-10T08:42:16.350Z,23.09
2022-08-10T08:45:11.473Z,22.98
2022-08-10T08:48:16.423Z,23.34
2022-08-10T08:51:02.157Z,23.61
2022-08-10T08:54:00.896Z,23.93
2022-08-10T08:56:49.971Z,24.26
2022-08-10T08:59:29.944Z,24.21
2022-08-10T09:02:16.127Z,24.51
2022-08-10T09:05:59.966Z,25.36
2022-08-10T09:08:52.668Z,25.76
2022-08-10T09:11:20.087Z,26.16
2022-08-10T09:14:02.801Z,25.95
2022-08-10T09:16:57.573Z,26.12
2022-08-10T09:19:40.148Z,26.22
2022-08-10T09:22:18.707Z,26.85
2022-08-10T09:25:13.563Z,26.86
2022-08-10T09:27:50.218Z,27.56
2022-08-10T09:30:33.079Z,27.69
2022-08-10T09:36:21.773Z,27.29
2022-08-10T09:36:25.987Z,27.57
2022-08-10T09:39:08.909Z,27.14
2022-08-10T09:41:39.150Z,27.23
2022-08-10T09:44:27.373Z,27.66
2022-08-10T09:47:58.566Z,27.42
2022-08-10T09:50:24.091Z,27.73
2022-08-10T09:53:05.139Z,28.30
2022-08-10T09:56:17.667Z,27.65
2022-08-10T09:58:51.288Z,28.04
2022-08-10T10:02:02.998Z,28.17
2022-08-10T10:04:52.285Z,28.93
2022-08-10T10:07:43.463Z,28.55
2022-08-10T10:10:33.829Z,28.61
2022-08-10T10:13:10.218Z,28.48
2022-08-10T10:16:04.495Z,28.40
2022-08-10T10:18:37.563Z,29.77
2022-08-10T10:21:08.471Z,30.30
2022-08-10T10:24:20.444Z,29.43
2022-08-10T10:27:33.840Z,29.45
2022-08-10T10:30:15.348Z,29.10
2022-08-10T10:32:59.462Z,29.03
2022-08-10T10:35:38.778Z,28.82
2022-08-10T10:38:11.201Z,28.70
2022-08-10T10:40:46.721Z,28.94
2022-08-10T10:43:33.756Z,29.35
2022-08-10T10:46:23.025Z,29.59
2022-08-10T10:49:04.571Z,28.96
2022-08-10T10:51:44.312Z,29.35
2022-08-10T10:54:20.427Z,28.67
2022-08-10T10:57:23.709Z,28.87
2022-08-10T11:00:13.481Z,29.83
2022-08-10T11:03:04.988Z,28.92
2022-08-10T11:05:50.791Z,30.20
2022-08-10T11:08:29.199Z,30.83
2022-08-10T11:11:05.377Z,29.98
2022-08-10T11:14:24.650Z,31.10
2022-08-10T11:16:54.423Z,31.88
2022-08-10T11:20:02.532Z,30.84
2022-08-10T11:22:43.056Z,31.54
2022-08-10T11:25:39.670Z,30.52
2022-08-10T11:28:41.685Z,31.24
2022-08-10T11:31:20.842Z,30.36
2022-08-10T11:34:48.607Z,30.81
2022-08-10T11:37:23.162Z,31.98
2022-08-10T11:40:15.329Z,30.94
2022-08-10T11:42:55.702Z,31.17
2022-08-10T11:45:29.998Z,31.06
2022-08-10T11:48:07.809Z,30.92
2022-08-10T11:50:44.525Z,30.86
2022-08-10T11:53:22.814Z,31.01
2022-08-10T11:55:56.957Z,31.04
2022-08-10T11:58:47.321Z,31.16
2022-08-10T12:01:18.861Z,31.87
2022-08-10T12:03:48.613Z,31.92
2022-08-10T12:06:39.169Z,31.61
2022-08-10T12:10:11.121Z,31.29
2022-08-10T12:12:00.301Z,31.80
2022-08-10T12:14:42.037Z,33.25
2022-08-10T12:17:16.905Z,32.52
2022-08-10T12:19:59.302Z,32.98
2022-08-10T12:22:48.671Z,31.81
2022-08-10T12:25:57.563Z,31.53
2022-08-10T12:28:51.204Z,32.04
2022-08-10T12:31:14.427Z,33.25
2022-08-10T12:34:02.672Z,33.30
2022-08-10T12:36:40.862Z,34.35
2022-08-10T12:39:21.588Z,33.04
2022-08-10T12:42:04.487Z,32.10
2022-08-10T12:44:41.610Z,32.02
2022-08-10T12:47:18.777Z,31.92
2022-08-10T12:50:32.902Z,33.56
2022-08-10T12:53:34.275Z,33.68
2022-08-10T12:56:03.506Z,33.30
2022-08-10T12:59:00.151Z,33.30
2022-08-10T13:01:20.907Z,33.84
2022-08-10T13:04:21.232Z,33.15
2022-08-10T13:06:46.171Z,31.62
2022-08-10T13:09:23.225Z,33.18
2022-08-10T13:12:35.318Z,31.77
2022-08-10T13:14:51.161Z,31.99
2022-08-10T13:17:39.233Z,33.91
2022-08-10T13:20:17.295Z,34.18
2022-08-10T13:22:48.421Z,33.36
2022-08-10T13:25:19.197Z,34.62
2022-08-10T13:28:00.863Z,35.30
2022-08-10T13:30:37.343Z,33.81
2022-08-10T13:33:08.294Z,33.54
2022-08-10T13:35:37.976Z,32.43
2022-08-10T13:38:08.165Z,33.95
2022-08-10T13:40:37.114Z,33.87
2022-08-10T13:43:08.501Z,32.49
2022-08-10T13:45:46.276Z,34.44
2022-08-10T13:48:22.357Z,34.13
2022-08-10T13:50:58.919Z,34.69
2022-08-10T13:53:31.938Z,33.68
2022-08-10T13:56:00.746Z,33.90
2022-08-10T13:58:34.998Z,33.09
2022-08-10T14:01:10.940Z,34.09
2022-08-10T14:03:41.023Z,34.00
2022-08-10T14:06:13.341Z,33.36
2022-08-10T14:08:46.647Z,32.88
2022-08-10T14:11:17.853Z,33.10
2022-08-10T14:13:53.030Z,32.25
2022-08-10T14:16:21.656Z,31.88
2022-08-10T14:18:52.348Z,31.67
2022-08-10T14:21:20.648Z,32.25
2022-08-10T14:23:53.205Z,32.19
2022-08-10T14:26:26.994Z,31.79
2022-08-10T14:28:58.194Z,31.82
2022-08-10T14:31:30.023Z,30.67
2022-08-10T14:34:00.468Z,30.86
2022-08-10T14:36:39.062Z,30.39
2022-08-10T14:39:08.523Z,30.56
2022-08-10T14:42:00.869Z,30.51
2022-08-10T14:44:30.990Z,30.46
2022-08-10T14:47:52.367Z,30.22
2022-08-10T14:49:58.230Z,29.92
2022-08-10T14:52:27.973Z,29.83
2022-08-10T14:54:58.009Z,29.96
2022-08-10T14:58:20.123Z,29.86
2022-08-10T15:00:30.843Z,29.83
2022-08-10T15:03:04.372Z,29.74
2022-08-10T15:05:45.443Z,29.73
2022-08-10T15:08:14.943Z,29.79
2022-08-10T15:10:51.085Z,29.68
2022-08-10T15:13:33.857Z,29.39
2022-08-10T15:16:13.888Z,29.63
2022-08-10T15:18:57.541Z,29.73
2022-08-10T15:21:40.721Z,29.58
2022-08-10T15:24:16.143Z,29.46
2022-08-10T15:26:57.591Z,29.69
2022-08-10T15:29:27.240Z,29.85
2022-08-10T15:32:12.346Z,29.73
2022-08-10T15:34:58.164Z,29.75
2022-08-10T15:37:47.098Z,29.50
2022-08-10T15:40:24.617Z,29.49
2022-08-10T15:43:24.900Z,29.62
2022-08-10T15:46:29.732Z,29.40
2022-08-10T15:49:02.164Z,29.27
2022-08-10T15:51:54.361Z,29.21
2022-08-10T15:54:33.578Z,29.45
2022-08-10T15:57:10.554Z,29.13
2022-08-10T15:59:56.598Z,29.09
2022-08-10T16:02:28.146Z,28.95
2022-08-10T16:04:58.364Z,28.94
2022-08-10T16:07:45.851Z,28.93
2022-08-10T16:10:27.616Z,28.98
2022-08-10T16:13:02.274Z,29.03
2022-08-10T16:15:59.336Z,28.87
2022-08-10T16:18:29.343Z,28.93
2022-08-10T16:21:02.165Z,29.05
2022-08-10T16:23:34.859Z,28.90
2022-08-10T16:26:14.488Z,28.84
2022-08-10T16:28:50.976Z,28.91
2022-08-10T16:31:24.896Z,28.83
2022-08-10T16:33:55.489Z,28.68
2022-08-10T16:36:50.014Z,28.71
2022-08-10T16:39:57.920Z,28.59
2022-08-10T16:42:17.567Z,28.51
2022-08-10T16:44:53.446Z,28.42
2022-08-10T16:47:27.493Z,28.52
2022-08-10T16:49:59.317Z,28.45
2022-08-10T16:52:29.444Z,28.51
2022-08-10T16:55:47.549Z,28.59
2022-08-10T16:58:09.211Z,28.20
2022-08-10T17:00:38.661Z,28.24
2022-08-10T17:04:04.661Z,28.30
2022-08-10T17:06:09.631Z,28.27
2022-08-10T17:08:48.127Z,28.18
2022-08-10T17:11:18.167Z,28.25
2022-08-10T17:13:46.337Z,28.20
2022-08-10T17:16:16.937Z,28.04
2022-08-10T17:18:47.902Z,28.12
2022-08-10T17:21:23.480Z,28.08
2022-08-10T17:23:54.374Z,27.93
2022-08-10T17:26:37.080Z,27.91
2022-08-10T17:29:58.613Z,27.84
2022-08-10T17:32:17.869Z,27.80
2022-08-10T17:34:53.899Z,27.79
2022-08-10T17:37:24.461Z,27.68
2022-08-10T17:40:00.593Z,27.71
2022-08-10T17:42:28.476Z,27.63
2022-08-10T17:44:57.573Z,27.53
2022-08-10T17:47:27.621Z,27.48
2022-08-10T17:49:59.705Z,27.44
2022-08-10T17:52:31.598Z,27.16
2022-08-10T17:55:04.666Z,27.18
2022-08-10T17:57:37.946Z,27.03
2022-08-10T18:00:09.884Z,26.98
2022-08-10T18:02:40.081Z,26.94
2022-08-10T18:05:10.271Z,26.86
2022-08-10T18:07:46.567Z,26.77
2022-08-10T18:10:19.603Z,26.79
2022-08-10T18:12:49.923Z,26.69
2022-08-10T18:15:22.071Z,26.65
2022-08-10T18:18:02.247Z,26.57
2022-08-10T18:20:38.216Z,26.54
2022-08-10T18:23:07.827Z,26.54
2022-08-10T18:25:39.466Z,26.40
2022-08-10T18:28:12.168Z,26.29
2022-08-10T18:30:50.533Z,26.28
2022-08-10T18:33:19.885Z,26.22
2022-08-10T18:35:49.067Z,26.10
2022-08-10T18:38:18.676Z,25.98
2022-08-10T18:41:00.285Z,26.02
2022-08-10T18:44:07.177Z,25.95
2022-08-10T18:46:28.152Z,25.90
2022-08-10T18:49:13.221Z,25.71
2022-08-10T18:51:46.812Z,25.65
2022-08-10T18:54:39.819Z,25.58
2022-08-10T18:57:59.082Z,25.46
2022-08-10T19:01:01.754Z,25.36
2022-08-10T19:03:38.347Z,25.30
2022-08-10T19:06:49.165Z,25.19
2022-08-10T19:09:47.779Z,25.10
2022-08-10T19:12:30.154Z,24.97
2022-08-10T19:15:05.998Z,24.88
2022-08-10T19:18:03.319Z,24.80
2022-08-10T19:20:40.369Z,24.73
2022-08-10T19:23:29.962Z,24.58
2022-08-10T19:26:44.621Z,24.53
2022-08-10T19:30:10.142Z,24.41
2022-08-10T19:32:33.028Z,24.33
2022-08-10T19:35:35.233Z,24.24
2022-08-10T19:38:49.591Z,24.06
2022-08-10T19:41:42.194Z,23.99
2022-08-10T19:44:18.869Z,23.92
2022-08-10T19:47:08.846Z,23.84
2022-08-10T19:49:52.301Z,23.75
2022-08-10T19:52:38.472Z,23.63
2022-08-10T19:55:30.628Z,23.26
2022-08-10T19:58:04.139Z,23.42
2022-08-10T20:01:02.200Z,23.30
2022-08-10T20:03:49.279Z,23.20
2022-08-10T20:06:32.830Z,23.05
2022-08-10T20:09:02.499Z,23.04
2022-08-10T20:11:56.011Z,22.96
2022-08-10T20:14:48.155Z,22.87
2022-08-10T20:17:50.985Z,22.76
2022-08-10T20:20:31.267Z,22.65
2022-08-10T20:23:15.545Z,22.54
2022-08-10T20:26:02.080Z,22.46
2022-08-10T20:28:32.744Z,22.37
2022-08-10T20:31:11.533Z,22.27
2022-08-10T20:34:01.766Z,22.25
2022-08-10T20:36:36.727Z,22.22
2022-08-10T20:39:14.540Z,22.16
2022-08-10T20:41:58.431Z,22.13
2022-08-10T20:44:25.931Z,22.05
2022-08-10T20:47:19.047Z,22.00
2022-08-10T20:50:16.847Z,21.86
2022-08-10T20:52:48.883Z,21.85
2022-08-10T20:55:17.417Z,21.81
2022-08-10T20:58:03.302Z,21.74
2022-08-10T21:00:47.502Z,21.68
2022-08-10T21:03:31.925Z,21.64
2022-08-10T21:06:00.815Z,21.59
2022-08-10T21:08:53.091Z,21.53
2022-08-10T21:11:23.294Z,21.46
2022-08-10T21:14:28.334Z,21.36
2022-08-10T21:17:06.317Z,21.27
2022-08-10T21:20:15.640Z,21.18
2022-08-10T21:22:45.761Z,21.12
2022-08-10T21:25:20.458Z,21.07
2022-08-10T21:27:58.991Z,21.08
2022-08-10T21:30:25.338Z,21.03
2022-08-10T21:33:06.482Z,20.97
2022-08-10T21:35:48.579Z,21.00
2022-08-10T21:38:23.923Z,20.94
2022-08-10T21:41:17.833Z,20.90
2022-08-10T21:44:39.868Z,20.85
2022-08-10T21:48:07.466Z,20.80
2022-08-10T21:51:05.755Z,20.67
2022-08-10T21:53:57.216Z,20.62
2022-08-10T21:57:12.040Z,20.63
2022-08-10T22:00:02.804Z,20.58
2022-08-10T22:02:52.655Z,20.55
2022-08-10T22:05:47.643Z,20.51
2022-08-10T22:08:36.876Z,20.44
2022-08-10T22:11:24.742Z,20.42
2022-08-10T22:14:10.407Z,20.39
2022-08-10T22:17:59.381Z,20.33
2022-08-10T22:20:43.741Z,20.26
2022-08-10T22:23:40.868Z,20.20
2022-08-10T22:27:01.121Z,20.12
2022-08-10T22:29:56.387Z,20.10
2022-08-10T22:32:53.539Z,20.09
2022-08-10T22:36:15.509Z,20.04
2022-08-10T22:39:11.382Z,19.98
2022-08-10T22:42:08.661Z,19.95
2022-08-10T22:45:00.111Z,19.93
2022-08-10T22:47:48.799Z,19.93
2022-08-10T22:50:20.676Z,19.90
2022-08-10T22:53:02.024Z,19.85
2022-08-10T22:55:54.368Z,19.80
2022-08-10T22:58:40.667Z,19.79
2022-08-10T23:01:39.063Z,19.77
2022-08-10T23:04:23.623Z,19.74
2022-08-10T23:07:09.183Z,19.69
2022-08-10T23:09:42.115Z,19.70
2022-08-10T23:12:36.499Z,19.66
2022-08-10T23:15:24.159Z,19.63
2022-08-10T23:18:14.370Z,19.58
2022-08-10T23:20:44.553Z,19.52
2022-08-10T23:23:24.082Z,19.45
2022-08-10T23:25:57.483Z,19.51
2022-08-10T23:28:58.565Z,19.50
2022-08-10T23:31:17.729Z,19.46
2022-08-10T23:34:07.342Z,19.46
2022-08-10T23:36:38.293Z,19.43
2022-08-10T23:39:26.933Z,19.17
2022-08-10T23:42:04.714Z,19.34
2022-08-10T23:44:47.293Z,19.33
2022-08-10T23:47:26.693Z,19.22
2022-08-10T23:49:57.734Z,19.22
2022-08-10T23:52:33.059Z,19.23
2022-08-10T23:55:05.934Z,19.19
2022-08-10T23:57:36.039Z,19.17
